createdAt,value
2019-02-10T00:00:42.041Z,4.20
2019-02-10T00:03:18.289Z,5.00
2019-02-10T00:05:47.740Z,5.00
2019-02-10T00:08:20.633Z,5.00
2019-02-10T00:10:53.098Z,5.67
2019-02-10T00:13:29.069Z,7.00
2019-02-10T00:16:02.164Z,5.40
2019-02-10T00:18:37.220Z,4.60
2019-02-10T00:21:12.229Z,3.40
2019-02-10T00:23:43.769Z,7.33
2019-02-10T00:26:17.249Z,5.33
2019-02-10T00:28:54.450Z,5.00
2019-02-10T00:31:25.794Z,10.33
2019-02-10T00:34:00.472Z,10.50
2019-02-10T00:36:33.410Z,6.33
2019-02-10T00:39:06.806Z,5.00
2019-02-10T00:41:38.124Z,7.00
2019-02-10T00:44:08.716Z,11.00
2019-02-10T00:46:45.096Z,7.00
2019-02-10T00:49:18.094Z,6.33
2019-02-10T00:51:52.991Z,5.00
2019-02-10T00:54:25.102Z,7.00
2019-02-10T00:57:00.428Z,7.00
2019-02-10T00:59:38.236Z,5.00
2019-02-10T01:02:09.554Z,5.00
2019-02-10T01:04:40.972Z,5.00
2019-02-10T01:07:13.173Z,5.67
2019-02-10T01:09:44.555Z,5.00
2019-02-10T01:12:15.981Z,7.67
2019-02-10T01:14:47.133Z,6.33
2019-02-10T01:17:20.167Z,5.00
2019-02-10T01:19:54.146Z,5.00
2019-02-10T01:22:27.636Z,3.00
2019-02-10T01:24:58.807Z,5.00
2019-02-10T01:27:30.430Z,7.00
2019-02-10T01:30:01.646Z,3.00
2019-02-10T01:32:33.536Z,3.00
2019-02-10T01:35:06.821Z,6.20
2019-02-10T01:37:45.854Z,5.00
2019-02-10T01:40:17.616Z,5.00
2019-02-10T01:42:48.638Z,5.00
2019-02-10T01:45:20.531Z,3.00
2019-02-10T01:47:52.932Z,3.40
2019-02-10T01:50:24.018Z,3.00
2019-02-10T01:52:55.219Z,4.33
2019-02-10T01:55:27.337Z,3.40
2019-02-10T01:57:59.207Z,4.20
2019-02-10T02:00:30.780Z,4.33
2019-02-10T02:03:06.277Z,3.00
2019-02-10T02:05:39.534Z,2.60
2019-02-10T02:08:11.504Z,7.00
2019-02-10T02:10:43.810Z,3.00
2019-02-10T02:13:14.792Z,7.00
2019-02-10T02:15:49.064Z,5.00
2019-02-10T02:18:22.432Z,4.33
2019-02-10T02:20:53.537Z,5.00
2019-02-10T02:23:25.839Z,5.00
2019-02-10T02:25:58.099Z,5.00
2019-02-10T02:28:30.074Z,5.00
2019-02-10T02:31:01.007Z,7.00
2019-02-10T02:33:34.528Z,5.00
2019-02-10T02:36:06.031Z,6.33
2019-02-10T02:38:39.415Z,4.20
2019-02-10T02:41:10.418Z,5.00
2019-02-10T02:43:41.832Z,5.00
2019-02-10T02:46:13.850Z,4.60
2019-02-10T02:48:45.847Z,5.40
2019-02-10T02:51:19.823Z,3.00
2019-02-10T02:53:57.475Z,3.00
2019-02-10T02:56:29.573Z,5.00
2019-02-10T02:59:02.074Z,3.80
2019-02-10T03:01:34.017Z,5.00
2019-02-10T03:04:05.208Z,5.00
2019-02-10T03:06:48.992Z,5.00
2019-02-10T03:09:21.531Z,5.00
2019-02-10T03:11:56.114Z,5.00
2019-02-10T03:14:28.045Z,5.00
2019-02-10T03:17:01.386Z,5.00
2019-02-10T03:19:33.064Z,7.00
2019-02-10T03:22:04.110Z,7.00
2019-02-10T03:24:36.343Z,7.00
2019-02-10T03:27:07.380Z,5.00
2019-02-10T03:29:39.435Z,5.00
2019-02-10T03:32:12.672Z,5.00
2019-02-10T03:34:52.457Z,6.33
2019-02-10T03:37:48.888Z,5.67
2019-02-10T03:40:28.652Z,5.75
2019-02-10T03:43:06.261Z,5.00
2019-02-10T03:45:39.597Z,6.80
2019-02-10T03:48:17.078Z,5.00
2019-02-10T03:50:59.528Z,7.00
2019-02-10T03:53:45.534Z,6.33
2019-02-10T03:56:31.133Z,5.00
2019-02-10T03:59:10.305Z,5.67
2019-02-10T04:01:41.952Z,7.00
2019-02-10T04:04:14.486Z,6.20
2019-02-10T04:06:45.674Z,6.33
2019-02-10T04:09:16.930Z,5.00
2019-02-10T04:11:49.201Z,5.80
2019-02-10T04:14:25.128Z,7.00
2019-02-10T04:16:56.672Z,7.00
2019-02-10T04:19:27.936Z,7.00
2019-02-10T04:22:00.107Z,7.00
2019-02-10T04:24:31.679Z,7.00
2019-02-10T04:27:04.825Z,10.33
2019-02-10T04:29:37.191Z,8.00
2019-02-10T04:32:09.683Z,9.80
2019-02-10T04:34:42.247Z,6.67
2019-02-10T04:37:14.035Z,7.33
2019-02-10T04:39:45.702Z,8.33
2019-02-10T04:42:19.152Z,9.33
2019-02-10T04:44:49.995Z,11.33
2019-02-10T04:47:31.414Z,8.33
2019-02-10T04:50:09.859Z,11.67
2019-02-10T04:52:54.451Z,9.33
2019-02-10T04:55:30.535Z,8.00
2019-02-10T04:58:03.102Z,10.67
2019-02-10T05:00:35.830Z,11.33
2019-02-10T05:03:06.210Z,9.33
2019-02-10T05:05:36.870Z,8.33
2019-02-10T05:08:09.168Z,11.00
2019-02-10T05:10:41.023Z,10.33
2019-02-10T05:13:15.768Z,11.00
2019-02-10T05:15:50.049Z,7.67
2019-02-10T05:18:22.512Z,11.00
2019-02-10T05:20:58.430Z,11.00
2019-02-10T05:23:33.672Z,13.00
2019-02-10T05:26:04.754Z,13.00
2019-02-10T05:28:35.127Z,11.00
2019-02-10T05:31:07.836Z,9.67
2019-02-10T05:33:38.634Z,12.33
2019-02-10T05:36:11.678Z,9.00
2019-02-10T05:38:43.763Z,13.00
2019-02-10T05:41:16.198Z,10.00
2019-02-10T05:43:47.364Z,14.33
2019-02-10T05:46:18.758Z,11.67
2019-02-10T05:48:52.112Z,11.00
2019-02-10T05:51:22.439Z,11.00
2019-02-10T05:53:53.406Z,11.00
2019-02-10T05:56:32.304Z,11.00
2019-02-10T05:59:03.035Z,12.33
2019-02-10T06:02:43.479Z,12.33
2019-02-10T06:05:20.867Z,12.00
2019-02-10T06:07:52.535Z,9.67
2019-02-10T06:10:22.955Z,13.00
2019-02-10T06:12:54.722Z,11.00
2019-02-10T06:15:28.887Z,7.00
2019-02-10T06:18:02.903Z,12.33
2019-02-10T06:20:37.507Z,11.50
2019-02-10T06:23:10.071Z,11.00
2019-02-10T06:25:44.006Z,9.00
2019-02-10T06:28:16.358Z,11.00
2019-02-10T06:31:03.705Z,9.00
2019-02-10T06:33:35.663Z,9.67
2019-02-10T06:36:07.294Z,9.67
2019-02-10T06:38:39.142Z,12.33
2019-02-10T06:41:10.304Z,11.67
2019-02-10T06:43:41.861Z,11.00
2019-02-10T06:46:15.987Z,9.00
2019-02-10T06:48:47.879Z,9.00
2019-02-10T06:51:20.341Z,8.00
2019-02-10T06:53:50.985Z,11.00
2019-02-10T06:56:22.360Z,9.00
2019-02-10T06:58:54.498Z,9.00
2019-02-10T07:01:47.902Z,9.00
2019-02-10T07:04:31.232Z,11.00
2019-02-10T07:07:07.769Z,11.00
2019-02-10T07:09:43.354Z,9.00
2019-02-10T07:12:58.818Z,9.00
2019-02-10T07:16:24.110Z,7.67
2019-02-10T07:19:32.844Z,7.00
2019-02-10T07:22:26.960Z,5.00
2019-02-10T07:25:41.509Z,5.67
2019-02-10T07:28:53.427Z,7.67
2019-02-10T07:31:33.796Z,9.00
2019-02-10T07:34:48.029Z,6.33
2019-02-10T07:38:02.332Z,3.00
2019-02-10T07:41:17.598Z,7.00
2019-02-10T07:44:17.022Z,5.00
2019-02-10T07:47:37.899Z,3.67
2019-02-10T07:50:51.568Z,6.00
2019-02-10T07:54:03.623Z,5.00
2019-02-10T07:57:12.123Z,4.33
2019-02-10T08:00:18.516Z,5.00
2019-02-10T08:03:42.837Z,4.33
2019-02-10T08:06:35.658Z,5.00
2019-02-10T08:09:58.507Z,5.00
2019-02-10T08:12:59.816Z,3.80
2019-02-10T08:16:26.236Z,4.33
2019-02-10T08:19:39.365Z,3.00
2019-02-10T08:22:52.294Z,5.40
2019-02-10T08:26:39.472Z,5.00
2019-02-10T08:29:53.244Z,5.00
2019-02-10T08:32:42.587Z,6.33
2019-02-10T08:35:28.539Z,5.00
2019-02-10T08:38:38.289Z,4.60
2019-02-10T08:41:38.264Z,5.00
2019-02-10T08:44:52.500Z,7.00
2019-02-10T08:47:58.718Z,5.00
2019-02-10T08:51:20.785Z,4.60
2019-02-10T08:53:57.256Z,4.20
2019-02-10T08:56:49.357Z,4.33
2019-02-10T08:59:22.024Z,3.00
2019-02-10T09:01:54.261Z,5.00
2019-02-10T09:04:29.785Z,3.40
2019-02-10T09:07:08.602Z,5.00
2019-02-10T09:09:40.919Z,3.40
2019-02-10T09:12:14.343Z,3.00
2019-02-10T09:14:48.630Z,7.00
2019-02-10T09:17:20.960Z,5.00
2019-02-10T09:20:00.885Z,7.67
2019-02-10T09:22:33.256Z,3.40
2019-02-10T09:25:04.760Z,4.33
2019-02-10T09:27:35.943Z,5.00
2019-02-10T09:30:23.715Z,5.00
2019-02-10T09:33:04.498Z,6.33
2019-02-10T09:35:38.415Z,5.00
2019-02-10T09:38:27.628Z,3.67
2019-02-10T09:41:00.272Z,7.00
2019-02-10T09:43:34.526Z,7.00
2019-02-10T09:46:12.060Z,6.33
2019-02-10T09:48:46.229Z,5.00
2019-02-10T09:51:27.158Z,3.67
2019-02-10T09:54:04.464Z,3.40
2019-02-10T09:56:47.022Z,5.00
2019-02-10T09:59:19.815Z,5.00
2019-02-10T10:01:55.201Z,5.00
2019-02-10T10:04:47.292Z,5.00
2019-02-10T10:07:22.904Z,5.00
2019-02-10T10:09:58.013Z,5.00
2019-02-10T10:12:31.379Z,3.67
2019-02-10T10:15:15.947Z,5.00
2019-02-10T10:18:15.016Z,3.00
2019-02-10T10:20:54.372Z,5.00
2019-02-10T10:23:29.484Z,4.33
2019-02-10T10:26:05.630Z,3.67
2019-02-10T10:28:38.091Z,4.33
2019-02-10T10:31:10.411Z,5.67
2019-02-10T10:33:56.263Z,3.40
2019-02-10T10:36:59.192Z,5.00
2019-02-10T10:40:12.054Z,4.20
2019-02-10T10:42:54.228Z,3.00
2019-02-10T10:45:45.531Z,4.60
2019-02-10T10:48:56.767Z,6.20
2019-02-10T10:51:20.168Z,5.00
2019-02-10T10:53:55.756Z,7.00
2019-02-10T10:56:31.531Z,5.00
2019-02-10T10:59:05.345Z,6.33
2019-02-10T11:01:48.779Z,9.00
2019-02-10T11:04:29.025Z,9.00
2019-02-10T11:07:08.776Z,7.00
2019-02-10T11:09:42.245Z,8.33
2019-02-10T11:12:14.257Z,7.00
2019-02-10T11:14:45.646Z,5.00
2019-02-10T11:17:26.608Z,6.33
2019-02-10T11:20:01.728Z,5.80
2019-02-10T11:22:39.313Z,9.33
2019-02-10T11:25:27.699Z,7.00
2019-02-10T11:28:01.896Z,7.00
2019-02-10T11:30:44.173Z,8.60
2019-02-10T11:33:16.390Z,8.33
2019-02-10T11:35:50.245Z,7.00
2019-02-10T11:38:24.584Z,7.67
2019-02-10T11:41:03.517Z,5.67
2019-02-10T11:43:40.188Z,7.00
2019-02-10T11:46:16.591Z,16.00
2019-02-10T11:48:51.270Z,21.33
2019-02-10T11:51:30.851Z,10.67
2019-02-10T11:54:06.230Z,6.33
2019-02-10T11:56:37.387Z,12.00
2019-02-10T11:59:14.471Z,9.75
2019-02-10T12:01:52.576Z,16.00
2019-02-10T12:04:31.799Z,12.67
2019-02-10T12:07:05.792Z,9.00
2019-02-10T12:09:41.393Z,5.67
2019-02-10T12:12:14.715Z,5.00
2019-02-10T12:14:49.792Z,5.00
2019-02-10T12:17:23.303Z,9.00
2019-02-10T12:19:58.210Z,7.00
2019-02-10T12:22:33.042Z,3.00
2019-02-10T12:25:04.592Z,7.00
2019-02-10T12:27:37.309Z,5.00
2019-02-10T12:30:18.468Z,3.00
2019-02-10T12:32:49.699Z,7.00
2019-02-10T12:35:27.029Z,5.40
2019-02-10T12:38:04.297Z,5.00
2019-02-10T12:40:38.825Z,3.67
2019-02-10T12:43:12.513Z,3.00
2019-02-10T12:45:44.615Z,2.60
2019-02-10T12:48:25.481Z,3.00
2019-02-10T12:50:57.878Z,3.80
2019-02-10T12:53:36.264Z,4.20
2019-02-10T12:56:09.288Z,3.00
2019-02-10T12:58:40.798Z,5.00
2019-02-10T13:01:17.661Z,4.33
2019-02-10T13:04:04.056Z,3.00
2019-02-10T13:06:40.437Z,5.00
2019-02-10T13:09:15.330Z,5.00
2019-02-10T13:11:58.302Z,5.00
2019-02-10T13:14:37.705Z,3.00
2019-02-10T13:17:28.304Z,3.00
2019-02-10T13:23:05.267Z,3.00
2019-02-10T13:25:46.792Z,5.00
2019-02-10T13:28:27.891Z,3.67
2019-02-10T13:31:26.761Z,3.67
2019-02-10T13:34:05.640Z,2.20
2019-02-10T13:36:42.531Z,3.00
2019-02-10T13:39:39.977Z,3.80
2019-02-10T13:42:16.733Z,3.00
2019-02-10T13:45:05.447Z,3.00
2019-02-10T13:47:44.922Z,3.40
2019-02-10T13:53:36.331Z,3.00
2019-02-10T13:56:14.289Z,3.00
2019-02-10T13:58:49.391Z,3.00
2019-02-10T14:01:41.425Z,1.00
2019-02-10T14:04:16.508Z,2.33
2019-02-10T14:06:52.902Z,1.00
2019-02-10T14:09:26.343Z,1.00
2019-02-10T14:11:57.759Z,1.00
2019-02-10T14:14:30.110Z,1.00
2019-02-10T14:17:15.588Z,1.00
2019-02-10T14:19:51.094Z,3.00
2019-02-10T14:22:27.828Z,1.00
2019-02-10T14:25:06.183Z,1.00
2019-02-10T14:27:44.422Z,1.00
2019-02-10T14:30:28.826Z,1.00
2019-02-10T14:33:00.813Z,1.00
2019-02-10T14:35:36.946Z,1.00
2019-02-10T14:38:09.666Z,1.00
2019-02-10T14:40:43.771Z,1.00
2019-02-10T14:43:14.944Z,1.00
2019-02-10T14:45:53.413Z,1.00
2019-02-10T14:48:25.719Z,1.33
2019-02-10T14:50:57.966Z,1.00
2019-02-10T14:53:33.488Z,1.40
2019-02-10T14:56:08.071Z,1.40
2019-02-10T14:58:45.494Z,1.40
2019-02-10T15:01:21.433Z,1.00
2019-02-10T15:04:02.779Z,1.00
2019-02-10T15:06:36.772Z,1.00
2019-02-10T15:09:11.550Z,1.00
2019-02-10T15:11:57.986Z,1.00
2019-02-10T15:14:32.996Z,1.00
2019-02-10T15:17:08.356Z,1.00
2019-02-10T15:19:44.816Z,1.00
2019-02-10T15:22:23.998Z,1.00
2019-02-10T15:25:03.988Z,1.00
2019-02-10T15:27:42.193Z,1.00
2019-02-10T15:30:24.984Z,1.00
2019-02-10T15:33:00.431Z,1.00
2019-02-10T15:35:36.924Z,1.00
2019-02-10T15:38:11.189Z,1.00
2019-02-10T15:40:50.009Z,1.00
2019-02-10T15:43:25.546Z,1.00
2019-02-10T15:46:24.937Z,1.00
2019-02-10T15:49:07.522Z,1.40
2019-02-10T15:51:47.915Z,1.33
2019-02-10T15:54:32.360Z,1.80
2019-02-10T15:57:06.757Z,1.00
2019-02-10T15:59:59.146Z,1.00
2019-02-10T16:02:28.531Z,1.33
2019-02-10T16:05:01.595Z,1.33
2019-02-10T16:07:33.659Z,1.33
2019-02-10T16:10:12.307Z,1.00
2019-02-10T16:12:48.842Z,1.00
2019-02-10T16:15:30.505Z,1.00
2019-02-10T16:18:19.057Z,1.00
2019-02-10T16:20:53.867Z,1.40
2019-02-10T16:23:31.138Z,1.40
2019-02-10T16:26:32.292Z,1.33
2019-02-10T16:29:19.417Z,1.33
2019-02-10T16:32:05.835Z,1.40
2019-02-10T16:34:38.382Z,1.33
2019-02-10T16:37:22.670Z,1.40
2019-02-10T16:39:57.559Z,1.33
2019-02-10T16:42:30.209Z,1.00
2019-02-10T16:45:07.280Z,1.00
2019-02-10T16:47:41.138Z,1.33
2019-02-10T16:50:18.776Z,1.33
2019-02-10T16:52:58.838Z,1.33
2019-02-10T16:55:32.920Z,2.00
2019-02-10T16:58:09.682Z,1.40
2019-02-10T17:00:46.438Z,1.33
2019-02-10T17:03:23.850Z,1.33
2019-02-10T17:06:03.037Z,2.67
2019-02-10T17:08:36.483Z,1.40
2019-02-10T17:11:14.339Z,1.33
2019-02-10T17:13:45.634Z,2.00
2019-02-10T17:16:21.111Z,2.00
2019-02-10T17:19:19.913Z,2.00
2019-02-10T17:21:55.347Z,2.00
2019-02-10T17:24:34.389Z,2.00
2019-02-10T17:27:12.626Z,1.00
2019-02-10T17:29:45.439Z,2.00
2019-02-10T17:32:17.835Z,2.00
2019-02-10T17:35:00.907Z,2.00
2019-02-10T17:37:45.200Z,2.00
2019-02-10T17:40:34.973Z,2.00
2019-02-10T17:43:07.418Z,2.00
2019-02-10T17:45:55.749Z,2.00
2019-02-10T17:48:30.191Z,2.00
2019-02-10T17:51:02.470Z,2.00
2019-02-10T17:53:38.005Z,2.00
2019-02-10T17:56:12.646Z,2.00
2019-02-10T17:58:49.791Z,2.00
2019-02-10T18:01:24.193Z,2.00
2019-02-10T18:04:00.956Z,2.00
2019-02-10T18:06:33.117Z,2.00
2019-02-10T18:09:12.824Z,2.00
2019-02-10T18:11:44.377Z,2.00
2019-02-10T18:14:30.746Z,2.00
2019-02-10T18:17:25.191Z,2.00
2019-02-10T18:20:14.686Z,2.00
2019-02-10T18:23:11.818Z,2.00
2019-02-10T18:26:03.764Z,2.00
2019-02-10T18:29:03.824Z,1.00
2019-02-10T18:32:13.129Z,2.00
2019-02-10T18:35:17.818Z,2.00
2019-02-10T18:38:37.410Z,2.00
2019-02-10T18:41:54.587Z,2.00
2019-02-10T18:44:32.082Z,2.00
2019-02-10T18:47:22.389Z,2.00
2019-02-10T18:50:26.284Z,2.00
2019-02-10T18:53:27.352Z,2.00
2019-02-10T18:56:34.662Z,2.00
2019-02-10T18:59:20.354Z,2.00
2019-02-10T19:02:11.279Z,2.00
2019-02-10T19:05:10.213Z,2.00
2019-02-10T19:08:07.641Z,2.00
2019-02-10T19:10:56.322Z,2.00
2019-02-10T19:14:23.879Z,2.00
2019-02-10T19:17:22.294Z,2.00
2019-02-10T19:20:13.849Z,2.00
2019-02-10T19:23:07.699Z,2.00
2019-02-10T19:26:01.513Z,2.00
2019-02-10T19:28:58.404Z,2.00
2019-02-10T19:32:06.972Z,2.00
2019-02-10T19:34:59.975Z,1.00
2019-02-10T19:38:05.362Z,2.00
2019-02-10T19:40:57.134Z,2.00
2019-02-10T19:43:51.337Z,2.00
2019-02-10T19:46:56.989Z,2.00
2019-02-10T19:50:01.135Z,2.00
2019-02-10T19:52:54.141Z,2.00
2019-02-10T19:55:50.547Z,2.00
2019-02-10T19:58:35.905Z,2.00
2019-02-10T20:01:24.319Z,2.00
2019-02-10T20:04:24.458Z,1.00
2019-02-10T20:07:20.082Z,2.00
2019-02-10T20:10:30.523Z,2.00
2019-02-10T20:13:21.862Z,2.00
2019-02-10T20:16:15.951Z,2.00
2019-02-10T20:19:12.603Z,2.00
2019-02-10T20:22:19.655Z,2.00
2019-02-10T20:25:13.477Z,2.00
2019-02-10T20:28:03.372Z,2.00
2019-02-10T20:30:54.496Z,2.00
2019-02-10T20:33:58.804Z,2.00
2019-02-10T20:36:49.867Z,2.00
2019-02-10T20:39:45.417Z,2.00
2019-02-10T20:42:52.003Z,2.00
2019-02-10T20:45:35.415Z,2.00
2019-02-10T20:48:37.148Z,2.00
2019-02-10T20:51:39.842Z,2.00
2019-02-10T20:54:28.792Z,2.00
2019-02-10T20:57:25.862Z,2.00
2019-02-10T21:00:15.907Z,1.00
2019-02-10T21:03:12.448Z,2.00
2019-02-10T21:06:00.791Z,4.00
2019-02-10T21:08:55.598Z,2.00
2019-02-10T21:11:45.885Z,2.67
2019-02-10T21:14:41.816Z,2.00
2019-02-10T21:17:34.853Z,2.00
2019-02-10T21:20:20.793Z,2.00
2019-02-10T21:23:28.352Z,2.00
2019-02-10T21:26:25.726Z,2.00
2019-02-10T21:29:30.987Z,2.00
2019-02-10T21:32:24.481Z,2.00
2019-02-10T21:35:08.921Z,2.00
2019-02-10T21:37:57.591Z,2.00
2019-02-10T21:40:54.219Z,1.00
2019-02-10T21:43:39.937Z,2.00
2019-02-10T21:46:32.010Z,2.00
2019-02-10T21:49:17.542Z,2.00
2019-02-10T21:51:52.465Z,2.00
2019-02-10T21:54:37.354Z,2.00
2019-02-10T21:57:09.493Z,2.00
2019-02-10T21:59:48.868Z,2.00
2019-02-10T22:02:34.922Z,2.00
2019-02-10T22:05:11.452Z,2.00
2019-02-10T22:07:45.230Z,1.00
2019-02-10T22:10:24.308Z,2.00
2019-02-10T22:12:59.278Z,2.00
2019-02-10T22:16:25.387Z,2.00
2019-02-10T22:19:33.809Z,2.00
2019-02-10T22:22:29.972Z,2.00
2019-02-10T22:31:06.507Z,2.00
2019-02-10T22:33:51.300Z,2.00
2019-02-10T22:36:35.583Z,2.00
2019-02-10T22:39:37.654Z,2.00
2019-02-10T22:42:18.041Z,2.00
2019-02-10T22:45:07.404Z,2.00
2019-02-10T22:47:44.553Z,2.00
2019-02-10T22:50:16.445Z,2.00
2019-02-10T22:52:51.367Z,2.00
2019-02-10T22:55:26.563Z,2.00
2019-02-10T22:57:58.296Z,2.00
2019-02-10T23:00:51.059Z,2.00
2019-02-10T23:03:22.669Z,2.00
2019-02-10T23:05:54.791Z,2.00
2019-02-10T23:08:30.863Z,2.00
2019-02-10T23:11:01.733Z,2.00
2019-02-10T23:13:34.343Z,2.00
2019-02-10T23:16:19.094Z,2.00
2019-02-10T23:18:52.768Z,2.00
2019-02-10T23:21:26.407Z,2.00
2019-02-10T23:23:57.689Z,2.00
2019-02-10T23:26:29.831Z,2.00
2019-02-10T23:29:04.255Z,2.00
2019-02-10T23:31:43.004Z,2.00
2019-02-10T23:34:15.919Z,2.00
2019-02-10T23:36:55.791Z,2.00
2019-02-10T23:39:38.545Z,2.00
2019-02-10T23:42:18.650Z,2.00
2019-02-10T23:44:53.089Z,2.00
2019-02-10T23:47:30.745Z,2.00
2019-02-10T23:50:03.502Z,2.00
2019-02-10T23:52:35.798Z,2.00
2019-02-10T23:55:07.928Z,2.00
2019-02-10T23:57:43.930Z,2.00
